Lemoore (Abandoned) Willett A, CO

10:28 PM MDT on May 20, 2018 (GMT -0600)
Lemoore (Abandoned) Willett A

Weather History for KLMO - February, 2014

Change the Weather History Date:

Friday, February 28, 2014

  Actual Average (KBJC) Record (KBJC)
Temperature  
Mean Temperature 44 °F -  
Max Temperature 59 °F 42 °F 80 °F (2006)
Min Temperature 29 °F 23 °F 3 °F (2015)
Degree Days  
Heating Degree Days 21    
Moisture  
Dew Point 27 °F    
Average Humidity 66    
Maximum Humidity 95    
Minimum Humidity 19    
Precipitation  
Precipitation 0.00 in - - ()
Sea Level Pressure  
Sea Level Pressure 29.73 in    
Wind  
Wind Speed 7 mph (NNE)    
Max Wind Speed 25 mph    
Max Gust Speed 37 mph    
Visibility 9 miles    
Events      
Averages and records for this station are not official NWS values.
T = Trace of Precipitation, MM = Missing Value Source: NWS Daily Summary

Daily Weather History Graph

Daily Weather History Graph

Search for Another Location

Airport or City:

Astronomy

Feb. 28, 2014 Rise Set
Actual Time 6:35 AM MST 5:51 PM MST
Civil Twilight 6:08 AM MST 6:18 PM MST
Nautical Twilight 5:36 AM MST 6:50 PM MST
Astronomical Twilight 5:05 AM MST 7:21 PM MST
Moon 5:51 AM MST (2/28) 5:31 PM MST (2/28)
Length of Visible Light 12h 10m
Length of Day
11h 15m
Waning Crescent, 0% of the Moon is Illuminated
Feb 28
Waning Crescent
Mar 1
New
Mar 8
First Quarter
Mar 16
Full
Mar 23
Last Quarter

Hourly Weather History & Observations

Time (MST) Temp. Windchill Dew Point Humidity Pressure Visibility Wind Dir Wind Speed Gust Speed Precip Events Conditions
12:12 AM 39.2 °F 37.0 °F 30.7 °F 72% 29.59 in 10.0 mi NNW 3.5 mph - N/A   Mostly Cloudy
12:32 AM 38.1 °F 33.7 °F 30.0 °F 73% 29.59 in 10.0 mi NW 5.8 mph - N/A   Scattered Clouds
12:52 AM 37.6 °F - 29.7 °F 73% 29.59 in 10.0 mi Calm Calm - N/A   Clear
1:12 AM 36.0 °F 31.1 °F 29.1 °F 76% 29.60 in 10.0 mi NNW 5.8 mph - N/A   Clear
1:32 AM 35.4 °F - 29.7 °F 80% 29.60 in 10.0 mi Calm Calm - N/A   Clear
1:52 AM 38.1 °F 35.7 °F 30.0 °F 73% 29.59 in 10.0 mi NNE 3.5 mph - N/A   Clear
2:12 AM 36.1 °F - 28.9 °F 75% 29.60 in 10.0 mi Calm Calm - N/A   Clear
2:32 AM 34.7 °F 30.6 °F 28.4 °F 78% 29.60 in 10.0 mi West 4.6 mph - N/A   Clear
2:52 AM 34.5 °F - 29.3 °F 81% 29.60 in 10.0 mi Calm Calm - N/A   Clear
3:12 AM 33.4 °F 28.1 °F 27.9 °F 80% 29.60 in 10.0 mi WSW 5.8 mph - N/A   Scattered Clouds
3:32 AM 32.0 °F 24.8 °F 27.3 °F 83% 29.60 in 10.0 mi SW 8.1 mph - N/A   Scattered Clouds
3:52 AM 33.8 °F - 28.4 °F 81% 29.60 in 10.0 mi Calm Calm - N/A   Clear
4:12 AM 32.7 °F 27.3 °F 27.0 °F 79% 29.61 in 10.0 mi WNW 5.8 mph - N/A   Clear
4:32 AM 32.0 °F 27.5 °F 27.5 °F 83% 29.61 in 10.0 mi North 4.6 mph - N/A   Clear
4:52 AM 30.9 °F 27.5 °F 26.2 °F 83% 29.61 in 10.0 mi SW 3.5 mph - N/A   Clear
5:12 AM 29.5 °F 25.9 °F 25.9 °F 86% 29.62 in 10.0 mi West 3.5 mph - N/A   Clear
5:32 AM 32.0 °F 28.7 °F 28.6 °F 87% 29.63 in 10.0 mi NW 3.5 mph - N/A   Clear
5:52 AM 32.0 °F - 27.1 °F 82% 29.63 in 10.0 mi Calm Calm - N/A   Clear
6:12 AM 30.0 °F 26.5 °F 25.7 °F 84% 29.63 in 10.0 mi NW 3.5 mph - N/A   Clear
6:32 AM 29.5 °F - 25.7 °F 86% 29.64 in 10.0 mi Calm Calm - N/A   Clear
6:52 AM 32.2 °F 26.7 °F 27.1 °F 82% 29.67 in 10.0 mi NW 5.8 mph - N/A   Clear
7:12 AM 33.3 °F - 28.8 °F 84% 29.67 in 10.0 mi Calm Calm - N/A   Clear
7:32 AM 37.8 °F 34.2 °F 31.3 °F 77% 29.67 in 10.0 mi SW 4.6 mph - N/A   Clear
7:52 AM 41.2 °F 39.2 °F 32.0 °F 70% 29.68 in 10.0 mi NW 3.5 mph - N/A   Clear
8:12 AM 45.5 °F - 33.3 °F 62% 29.70 in 10.0 mi Calm Calm - N/A   Clear
8:32 AM 49.1 °F - 33.4 °F 55% 29.70 in 10.0 mi Calm Calm - N/A   Clear
8:52 AM 52.9 °F - 30.6 °F 43% 29.72 in 10.0 mi Calm Calm - N/A   Clear
9:12 AM 55.9 °F - 24.4 °F 30% 29.72 in 10.0 mi WNW 4.6 mph - N/A   Clear
9:32 AM 56.3 °F - 21.4 °F 26% 29.73 in 10.0 mi West 19.6 mph 29.9 mph N/A   Clear
9:52 AM 54.5 °F - 22.1 °F 28% 29.73 in 10.0 mi West 25.3 mph 36.8 mph N/A   Clear
10:12 AM 55.2 °F - 19.0 °F 24% 29.74 in 10.0 mi WSW 21.9 mph 33.4 mph N/A   Clear
10:32 AM - - - N/A% - - North - - N/A   Unknown
10:52 AM 57.2 °F - 18.9 °F 22% 29.75 in 10.0 mi WNW 13.8 mph 27.6 mph N/A   Scattered Clouds
11:15 AM 58.3 °F - 19.9 °F 23% 29.75 in 10.0 mi WNW 12.7 mph 18.4 mph N/A   Scattered Clouds
11:35 AM 58.5 °F - 18.5 °F 21% 29.74 in 10.0 mi West 24.2 mph 31.1 mph N/A   Clear
11:55 AM 57.2 °F - 17.6 °F 21% 29.74 in 10.0 mi WNW 12.7 mph 31.1 mph N/A   Clear
12:15 PM 57.2 °F - 19.0 °F 23% 29.74 in 10.0 mi West 18.4 mph 26.5 mph N/A   Clear
12:35 PM 56.8 °F - 18.7 °F 23% 29.73 in 10.0 mi WNW 19.6 mph 27.6 mph N/A   Clear
12:55 PM 57.7 °F - 17.6 °F 21% 29.72 in 10.0 mi WNW 25.3 mph 32.2 mph N/A   Clear
1:15 PM 59.0 °F - 17.1 °F 20% 29.70 in 10.0 mi WNW 17.3 mph 26.5 mph N/A   Clear
1:35 PM 59.0 °F - 16.5 °F 19% 29.68 in 10.0 mi NW 17.3 mph 28.8 mph N/A   Clear
1:55 PM 56.7 °F - 25.3 °F 30% 29.69 in 10.0 mi North 13.8 mph 23.0 mph N/A   Clear
2:15 PM 52.9 °F - 31.6 °F 44% 29.71 in 10.0 mi ENE 20.7 mph 26.5 mph N/A   Clear
2:35 PM 49.8 °F - 31.8 °F 50% 29.73 in 10.0 mi East 17.3 mph 23.0 mph N/A   Clear
2:55 PM 46.6 °F - 31.5 °F 56% 29.74 in 10.0 mi East 12.7 mph 20.7 mph N/A   Clear
3:15 PM 45.7 °F 39.1 °F 31.3 °F 57% 29.75 in 10.0 mi East 15.0 mph - N/A   Clear
3:35 PM 44.4 °F 38.6 °F 30.9 °F 59% 29.77 in 10.0 mi East 11.5 mph - N/A   Clear
3:55 PM 43.2 °F 37.9 °F 30.2 °F 60% 29.77 in 10.0 mi ESE 9.2 mph - N/A   Clear
4:15 PM 44.6 °F 38.8 °F 30.6 °F 58% 29.77 in 10.0 mi ENE 11.5 mph - N/A   Scattered Clouds
4:35 PM 43.7 °F 39.1 °F 30.2 °F 59% 29.78 in 10.0 mi ENE 8.1 mph - N/A   Clear
4:55 PM 40.1 °F 33.2 °F 29.7 °F 66% 29.79 in 10.0 mi East 11.5 mph - N/A   Scattered Clouds
5:15 PM 38.3 °F 31.9 °F 29.3 °F 70% 29.78 in 10.0 mi East 9.2 mph - N/A   Scattered Clouds
5:35 PM 36.7 °F 28.9 °F 28.9 °F 74% 29.80 in 10.0 mi East 11.5 mph - N/A   Scattered Clouds
5:55 PM 35.6 °F 28.6 °F 28.9 °F 77% 29.81 in 10.0 mi East 9.2 mph - N/A   Clear
6:15 PM 34.7 °F 28.1 °F 28.9 °F 79% 29.83 in 10.0 mi East 8.1 mph - N/A   Scattered Clouds
6:35 PM 33.8 °F 27.0 °F 28.4 °F 81% 29.83 in 10.0 mi East 8.1 mph - N/A   Overcast
6:55 PM 32.5 °F 25.5 °F 27.9 °F 83% 29.84 in 10.0 mi East 8.1 mph - N/A   Overcast
7:15 PM 32.0 °F 24.8 °F 27.5 °F 83% 29.85 in 10.0 mi East 8.1 mph - N/A   Overcast
7:35 PM 32.0 °F 26.4 °F 27.5 °F 83% 29.86 in 10.0 mi NE 5.8 mph - N/A   Overcast
7:55 PM 32.0 °F 25.6 °F 27.5 °F 83% 29.84 in 10.0 mi East 6.9 mph - N/A   Overcast
8:15 PM 31.8 °F 24.6 °F 27.5 °F 84% 29.85 in 10.0 mi ENE 8.1 mph - N/A   Overcast
8:35 PM 31.3 °F 25.6 °F 27.1 °F 85% 29.86 in 10.0 mi NE 5.8 mph - N/A   Overcast
8:55 PM 30.6 °F 22.4 °F 27.1 °F 87% 29.87 in 7.0 mi ESE 9.2 mph - N/A   Overcast
9:15 PM 30.2 °F 22.6 °F 27.1 °F 88% 29.87 in 7.0 mi East 8.1 mph - N/A   Overcast
9:35 PM 29.7 °F 22.8 °F 26.6 °F 88% 29.88 in 7.0 mi ENE 6.9 mph - N/A   Overcast
9:55 PM 29.7 °F 23.7 °F 26.8 °F 89% 29.88 in 7.0 mi East 5.8 mph - N/A   Overcast
10:15 PM 29.3 °F 23.2 °F 27.0 °F 91% 29.87 in 7.0 mi NE 5.8 mph - N/A   Overcast
10:35 PM 29.1 °F 24.1 °F 27.0 °F 92% 29.87 in 5.0 mi NE 4.6 mph - N/A   Overcast
10:55 PM 29.1 °F 23.0 °F 27.3 °F 93% 29.86 in 7.0 mi NE 5.8 mph - N/A   Overcast
11:15 PM 29.1 °F 24.1 °F 27.3 °F 93% 29.86 in 5.0 mi NE 4.6 mph - N/A   Overcast
11:35 PM 29.1 °F - 27.5 °F 94% 29.86 in 2.5 mi Calm Calm - N/A   Overcast
11:55 PM 29.3 °F 24.3 °F 28.0 °F 95% 29.85 in 3.0 mi NE 4.6 mph - N/A   Overcast